sensor_id;sensor_type;location;lat;lon;timestamp;P1;durP1;ratioP1;P2;durP2;ratioP2
19312;SDS011;9791;50.820;4.406;2022-07-12T00:02:10;7.43;;;3.78;;
19312;SDS011;9791;50.820;4.406;2022-07-12T00:04:37;6.80;;;3.63;;
19312;SDS011;9791;50.820;4.406;2022-07-12T00:07:04;5.47;;;3.33;;
19312;SDS011;9791;50.820;4.406;2022-07-12T00:09:30;6.38;;;3.88;;
19312;SDS011;9791;50.820;4.406;2022-07-12T00:11:56;6.10;;;3.40;;
19312;SDS011;9791;50.820;4.406;2022-07-12T00:14:23;5.10;;;3.65;;
19312;SDS011;9791;50.820;4.406;2022-07-12T00:16:49;6.25;;;3.45;;
19312;SDS011;9791;50.820;4.406;2022-07-12T00:19:16;7.07;;;4.03;;
19312;SDS011;9791;50.820;4.406;2022-07-12T00:21:42;7.18;;;3.88;;
19312;SDS011;9791;50.820;4.406;2022-07-12T00:24:08;6.15;;;3.40;;
19312;SDS011;9791;50.820;4.406;2022-07-12T00:26:34;5.90;;;3.40;;
19312;SDS011;9791;50.820;4.406;2022-07-12T00:29:00;6.47;;;3.65;;
19312;SDS011;9791;50.820;4.406;2022-07-12T00:31:26;6.75;;;3.70;;
19312;SDS011;9791;50.820;4.406;2022-07-12T00:33:52;5.20;;;3.42;;
19312;SDS011;9791;50.820;4.406;2022-07-12T00:36:18;5.53;;;3.25;;
19312;SDS011;9791;50.820;4.406;2022-07-12T00:38:45;6.28;;;3.53;;
19312;SDS011;9791;50.820;4.406;2022-07-12T00:41:11;5.95;;;3.75;;
19312;SDS011;9791;50.820;4.406;2022-07-12T00:43:37;6.70;;;3.55;;
19312;SDS011;9791;50.820;4.406;2022-07-12T00:46:03;6.95;;;3.63;;
19312;SDS011;9791;50.820;4.406;2022-07-12T00:48:30;7.13;;;3.50;;
19312;SDS011;9791;50.820;4.406;2022-07-12T00:50:57;6.20;;;3.47;;
19312;SDS011;9791;50.820;4.406;2022-07-12T00:53:23;5.13;;;3.50;;
19312;SDS011;9791;50.820;4.406;2022-07-12T00:55:53;7.25;;;3.95;;
19312;SDS011;9791;50.820;4.406;2022-07-12T00:58:20;5.80;;;4.10;;
19312;SDS011;9791;50.820;4.406;2022-07-12T01:00:47;6.55;;;4.10;;
19312;SDS011;9791;50.820;4.406;2022-07-12T01:03:13;6.97;;;3.55;;
19312;SDS011;9791;50.820;4.406;2022-07-12T01:05:40;5.72;;;3.72;;
19312;SDS011;9791;50.820;4.406;2022-07-12T01:08:06;6.88;;;4.05;;
19312;SDS011;9791;50.820;4.406;2022-07-12T01:10:32;5.88;;;3.63;;
19312;SDS011;9791;50.820;4.406;2022-07-12T01:12:59;6.22;;;3.95;;
19312;SDS011;9791;50.820;4.406;2022-07-12T01:15:26;7.22;;;3.83;;
19312;SDS011;9791;50.820;4.406;2022-07-12T01:17:52;6.45;;;4.38;;
19312;SDS011;9791;50.820;4.406;2022-07-12T01:20:18;6.18;;;4.05;;
19312;SDS011;9791;50.820;4.406;2022-07-12T01:22:57;6.63;;;4.20;;
19312;SDS011;9791;50.820;4.406;2022-07-12T01:25:23;8.75;;;4.40;;
19312;SDS011;9791;50.820;4.406;2022-07-12T01:27:49;6.57;;;3.88;;
19312;SDS011;9791;50.820;4.406;2022-07-12T01:30:15;8.82;;;4.68;;
19312;SDS011;9791;50.820;4.406;2022-07-12T01:32:41;10.00;;;4.82;;
19312;SDS011;9791;50.820;4.406;2022-07-12T01:35:08;8.02;;;4.40;;
19312;SDS011;9791;50.820;4.406;2022-07-12T01:37:35;6.53;;;4.70;;
19312;SDS011;9791;50.820;4.406;2022-07-12T01:40:02;6.88;;;4.68;;
19312;SDS011;9791;50.820;4.406;2022-07-12T01:42:29;8.70;;;4.95;;
19312;SDS011;9791;50.820;4.406;2022-07-12T01:44:55;6.30;;;4.70;;
19312;SDS011;9791;50.820;4.406;2022-07-12T01:47:22;6.35;;;4.38;;
19312;SDS011;9791;50.820;4.406;2022-07-12T01:49:48;9.23;;;4.40;;
19312;SDS011;9791;50.820;4.406;2022-07-12T01:52:14;8.00;;;4.57;;
19312;SDS011;9791;50.820;4.406;2022-07-12T01:54:40;11.00;;;4.80;;
19312;SDS011;9791;50.820;4.406;2022-07-12T01:57:07;12.18;;;4.47;;
19312;SDS011;9791;50.820;4.406;2022-07-12T01:59:33;7.40;;;4.50;;
19312;SDS011;9791;50.820;4.406;2022-07-12T02:01:59;6.15;;;4.45;;
19312;SDS011;9791;50.820;4.406;2022-07-12T02:04:26;7.68;;;4.18;;
19312;SDS011;9791;50.820;4.406;2022-07-12T02:06:52;7.82;;;5.05;;
19312;SDS011;9791;50.820;4.406;2022-07-12T02:09:18;8.57;;;4.53;;
19312;SDS011;9791;50.820;4.406;2022-07-12T02:11:44;7.32;;;5.03;;
19312;SDS011;9791;50.820;4.406;2022-07-12T02:14:11;7.38;;;5.30;;
19312;SDS011;9791;50.820;4.406;2022-07-12T02:16:38;7.05;;;4.60;;
19312;SDS011;9791;50.820;4.406;2022-07-12T02:19:04;7.70;;;5.35;;
19312;SDS011;9791;50.820;4.406;2022-07-12T02:21:30;7.18;;;4.70;;
19312;SDS011;9791;50.820;4.406;2022-07-12T02:23:56;7.28;;;4.70;;
19312;SDS011;9791;50.820;4.406;2022-07-12T02:26:22;7.68;;;5.20;;
19312;SDS011;9791;50.820;4.406;2022-07-12T02:28:49;8.02;;;5.15;;
19312;SDS011;9791;50.820;4.406;2022-07-12T02:31:15;7.10;;;5.00;;
19312;SDS011;9791;50.820;4.406;2022-07-12T02:33:41;6.82;;;4.85;;
19312;SDS011;9791;50.820;4.406;2022-07-12T02:36:09;8.25;;;4.85;;
19312;SDS011;9791;50.820;4.406;2022-07-12T02:38:35;6.78;;;5.10;;
19312;SDS011;9791;50.820;4.406;2022-07-12T02:41:01;8.07;;;5.05;;
19312;SDS011;9791;50.820;4.406;2022-07-12T02:43:28;7.88;;;5.07;;
19312;SDS011;9791;50.820;4.406;2022-07-12T02:45:55;7.28;;;5.03;;
19312;SDS011;9791;50.820;4.406;2022-07-12T02:48:21;8.23;;;5.13;;
19312;SDS011;9791;50.820;4.406;2022-07-12T02:50:47;7.00;;;4.88;;
19312;SDS011;9791;50.820;4.406;2022-07-12T02:53:14;7.53;;;4.68;;
19312;SDS011;9791;50.820;4.406;2022-07-12T02:55:40;7.70;;;5.15;;
19312;SDS011;9791;50.820;4.406;2022-07-12T02:58:06;6.80;;;4.68;;
19312;SDS011;9791;50.820;4.406;2022-07-12T03:00:33;6.70;;;5.00;;
19312;SDS011;9791;50.820;4.406;2022-07-12T03:03:00;11.25;;;5.60;;
19312;SDS011;9791;50.820;4.406;2022-07-12T03:05:27;6.97;;;4.63;;
19312;SDS011;9791;50.820;4.406;2022-07-12T03:07:53;8.82;;;5.32;;
19312;SDS011;9791;50.820;4.406;2022-07-12T03:10:18;7.63;;;5.18;;
19312;SDS011;9791;50.820;4.406;2022-07-12T03:12:45;7.40;;;5.50;;
19312;SDS011;9791;50.820;4.406;2022-07-12T03:15:11;7.25;;;5.32;;
19312;SDS011;9791;50.820;4.406;2022-07-12T03:17:37;6.82;;;5.00;;
19312;SDS011;9791;50.820;4.406;2022-07-12T03:20:03;8.85;;;5.32;;
19312;SDS011;9791;50.820;4.406;2022-07-12T03:22:32;7.82;;;4.95;;
19312;SDS011;9791;50.820;4.406;2022-07-12T03:24:58;9.00;;;5.30;;
19312;SDS011;9791;50.820;4.406;2022-07-12T03:27:24;8.00;;;4.88;;
19312;SDS011;9791;50.820;4.406;2022-07-12T03:29:50;8.40;;;5.03;;
19312;SDS011;9791;50.820;4.406;2022-07-12T03:32:16;8.23;;;5.68;;
19312;SDS011;9791;50.820;4.406;2022-07-12T03:34:42;7.38;;;5.18;;
19312;SDS011;9791;50.820;4.406;2022-07-12T03:37:08;9.27;;;4.95;;
19312;SDS011;9791;50.820;4.406;2022-07-12T03:39:34;7.88;;;5.28;;
19312;SDS011;9791;50.820;4.406;2022-07-12T03:42:00;6.75;;;4.90;;
19312;SDS011;9791;50.820;4.406;2022-07-12T03:44:26;10.10;;;5.00;;
19312;SDS011;9791;50.820;4.406;2022-07-12T03:46:55;6.53;;;4.57;;
19312;SDS011;9791;50.820;4.406;2022-07-12T03:49:21;7.63;;;4.72;;
19312;SDS011;9791;50.820;4.406;2022-07-12T03:51:47;6.55;;;4.80;;
19312;SDS011;9791;50.820;4.406;2022-07-12T03:54:13;6.97;;;5.40;;
19312;SDS011;9791;50.820;4.406;2022-07-12T03:56:39;8.10;;;4.78;;
19312;SDS011;9791;50.820;4.406;2022-07-12T03:59:23;8.82;;;4.82;;
19312;SDS011;9791;50.820;4.406;2022-07-12T04:01:49;9.00;;;4.72;;
19312;SDS011;9791;50.820;4.406;2022-07-12T04:04:15;5.88;;;4.30;;
19312;SDS011;9791;50.820;4.406;2022-07-12T04:06:41;9.77;;;4.97;;
19312;SDS011;9791;50.820;4.406;2022-07-12T04:09:07;7.63;;;4.57;;
19312;SDS011;9791;50.820;4.406;2022-07-12T04:11:33;6.13;;;4.13;;
19312;SDS011;9791;50.820;4.406;2022-07-12T04:13:59;6.65;;;3.70;;
19312;SDS011;9791;50.820;4.406;2022-07-12T04:16:25;8.35;;;4.35;;
19312;SDS011;9791;50.820;4.406;2022-07-12T04:18:52;9.38;;;4.75;;
19312;SDS011;9791;50.820;4.406;2022-07-12T04:21:19;6.20;;;3.65;;
19312;SDS011;9791;50.820;4.406;2022-07-12T04:23:45;5.88;;;4.05;;
19312;SDS011;9791;50.820;4.406;2022-07-12T04:26:11;6.38;;;4.63;;
19312;SDS011;9791;50.820;4.406;2022-07-12T04:28:37;6.43;;;4.55;;
19312;SDS011;9791;50.820;4.406;2022-07-12T04:31:03;7.60;;;4.90;;
19312;SDS011;9791;50.820;4.406;2022-07-12T04:33:29;6.55;;;4.63;;
19312;SDS011;9791;50.820;4.406;2022-07-12T04:35:55;6.88;;;4.43;;
19312;SDS011;9791;50.820;4.406;2022-07-12T04:38:21;9.50;;;4.90;;
19312;SDS011;9791;50.820;4.406;2022-07-12T04:40:47;7.10;;;4.53;;
19312;SDS011;9791;50.820;4.406;2022-07-12T04:43:13;7.35;;;5.28;;
19312;SDS011;9791;50.820;4.406;2022-07-12T04:45:40;5.78;;;4.13;;
19312;SDS011;9791;50.820;4.406;2022-07-12T04:48:09;6.80;;;4.35;;
19312;SDS011;9791;50.820;4.406;2022-07-12T04:50:35;7.05;;;4.63;;
19312;SDS011;9791;50.820;4.406;2022-07-12T04:53:01;6.70;;;4.45;;
19312;SDS011;9791;50.820;4.406;2022-07-12T04:55:27;9.55;;;4.97;;
19312;SDS011;9791;50.820;4.406;2022-07-12T04:57:53;10.43;;;4.95;;
19312;SDS011;9791;50.820;4.406;2022-07-12T05:00:19;5.53;;;4.07;;
19312;SDS011;9791;50.820;4.406;2022-07-12T05:02:46;7.47;;;5.00;;
19312;SDS011;9791;50.820;4.406;2022-07-12T05:05:12;7.80;;;4.90;;
19312;SDS011;9791;50.820;4.406;2022-07-12T05:07:39;7.00;;;4.95;;
19312;SDS011;9791;50.820;4.406;2022-07-12T05:10:05;7.00;;;5.10;;
19312;SDS011;9791;50.820;4.406;2022-07-12T05:12:31;7.05;;;4.78;;
19312;SDS011;9791;50.820;4.406;2022-07-12T05:14:57;6.57;;;4.88;;
19312;SDS011;9791;50.820;4.406;2022-07-12T05:17:23;8.23;;;4.50;;
19312;SDS011;9791;50.820;4.406;2022-07-12T05:19:50;6.45;;;4.53;;
19312;SDS011;9791;50.820;4.406;2022-07-12T05:22:16;7.47;;;4.28;;
19312;SDS011;9791;50.820;4.406;2022-07-12T05:24:42;6.22;;;4.65;;
19312;SDS011;9791;50.820;4.406;2022-07-12T05:27:08;8.23;;;5.13;;
19312;SDS011;9791;50.820;4.406;2022-07-12T05:29:35;5.95;;;4.43;;
19312;SDS011;9791;50.820;4.406;2022-07-12T05:32:01;8.05;;;4.50;;
19312;SDS011;9791;50.820;4.406;2022-07-12T05:34:27;8.15;;;4.30;;
19312;SDS011;9791;50.820;4.406;2022-07-12T05:36:53;7.68;;;4.30;;
19312;SDS011;9791;50.820;4.406;2022-07-12T05:39:19;7.03;;;4.25;;
19312;SDS011;9791;50.820;4.406;2022-07-12T05:41:45;6.93;;;4.60;;
19312;SDS011;9791;50.820;4.406;2022-07-12T05:44:12;7.07;;;4.63;;
19312;SDS011;9791;50.820;4.406;2022-07-12T05:46:38;6.07;;;4.20;;
19312;SDS011;9791;50.820;4.406;2022-07-12T05:49:05;7.32;;;3.92;;
19312;SDS011;9791;50.820;4.406;2022-07-12T05:51:32;6.55;;;4.68;;
19312;SDS011;9791;50.820;4.406;2022-07-12T05:54:16;8.38;;;4.45;;
19312;SDS011;9791;50.820;4.406;2022-07-12T05:56:43;6.53;;;4.72;;
19312;SDS011;9791;50.820;4.406;2022-07-12T05:59:08;7.95;;;4.47;;
19312;SDS011;9791;50.820;4.406;2022-07-12T06:01:35;6.32;;;4.13;;
19312;SDS011;9791;50.820;4.406;2022-07-12T06:04:01;6.10;;;4.80;;
19312;SDS011;9791;50.820;4.406;2022-07-12T06:06:27;7.55;;;4.93;;
19312;SDS011;9791;50.820;4.406;2022-07-12T06:08:54;7.38;;;5.30;;
19312;SDS011;9791;50.820;4.406;2022-07-12T06:11:20;6.78;;;5.30;;
19312;SDS011;9791;50.820;4.406;2022-07-12T06:13:46;6.78;;;5.47;;
19312;SDS011;9791;50.820;4.406;2022-07-12T06:16:14;6.57;;;4.78;;
19312;SDS011;9791;50.820;4.406;2022-07-12T06:18:40;7.28;;;5.85;;
19312;SDS011;9791;50.820;4.406;2022-07-12T06:21:05;7.95;;;5.55;;
19312;SDS011;9791;50.820;4.406;2022-07-12T06:23:32;7.05;;;4.90;;
19312;SDS011;9791;50.820;4.406;2022-07-12T06:25:57;6.30;;;4.68;;
19312;SDS011;9791;50.820;4.406;2022-07-12T06:28:23;5.70;;;4.03;;
19312;SDS011;9791;50.820;4.406;2022-07-12T06:30:49;6.63;;;3.88;;
19312;SDS011;9791;50.820;4.406;2022-07-12T06:33:15;5.78;;;3.72;;
19312;SDS011;9791;50.820;4.406;2022-07-12T06:35:41;7.07;;;4.30;;
19312;SDS011;9791;50.820;4.406;2022-07-12T06:38:07;5.10;;;3.50;;
19312;SDS011;9791;50.820;4.406;2022-07-12T06:40:33;6.32;;;3.28;;
19312;SDS011;9791;50.820;4.406;2022-07-12T06:42:59;5.88;;;3.42;;
19312;SDS011;9791;50.820;4.406;2022-07-12T06:45:25;5.70;;;3.60;;
19312;SDS011;9791;50.820;4.406;2022-07-12T06:47:52;5.03;;;3.13;;
19312;SDS011;9791;50.820;4.406;2022-07-12T06:50:18;5.85;;;3.55;;
19312;SDS011;9791;50.820;4.406;2022-07-12T06:52:44;5.68;;;3.13;;
19312;SDS011;9791;50.820;4.406;2022-07-12T06:55:10;4.85;;;2.72;;
19312;SDS011;9791;50.820;4.406;2022-07-12T06:57:36;5.68;;;2.95;;
19312;SDS011;9791;50.820;4.406;2022-07-12T07:00:03;6.85;;;4.07;;
19312;SDS011;9791;50.820;4.406;2022-07-12T07:02:30;4.57;;;2.70;;
19312;SDS011;9791;50.820;4.406;2022-07-12T07:04:56;6.05;;;3.22;;
19312;SDS011;9791;50.820;4.406;2022-07-12T07:07:22;7.45;;;3.17;;
19312;SDS011;9791;50.820;4.406;2022-07-12T07:09:48;6.43;;;3.13;;
19312;SDS011;9791;50.820;4.406;2022-07-12T07:12:14;4.43;;;2.90;;
19312;SDS011;9791;50.820;4.406;2022-07-12T07:14:40;8.63;;;2.88;;
19312;SDS011;9791;50.820;4.406;2022-07-12T07:17:06;4.50;;;3.08;;
19312;SDS011;9791;50.820;4.406;2022-07-12T07:19:33;5.38;;;3.05;;
19312;SDS011;9791;50.820;4.406;2022-07-12T07:21:59;5.93;;;3.30;;
19312;SDS011;9791;50.820;4.406;2022-07-12T07:24:25;4.65;;;2.95;;
19312;SDS011;9791;50.820;4.406;2022-07-12T07:26:51;4.47;;;2.90;;
19312;SDS011;9791;50.820;4.406;2022-07-12T07:29:16;5.70;;;3.22;;
19312;SDS011;9791;50.820;4.406;2022-07-12T07:32:01;5.22;;;2.67;;
19312;SDS011;9791;50.820;4.406;2022-07-12T07:34:28;3.80;;;2.53;;
19312;SDS011;9791;50.820;4.406;2022-07-12T07:36:54;4.43;;;2.80;;
19312;SDS011;9791;50.820;4.406;2022-07-12T07:39:20;4.95;;;2.92;;
19312;SDS011;9791;50.820;4.406;2022-07-12T07:41:46;4.93;;;2.70;;
19312;SDS011;9791;50.820;4.406;2022-07-12T07:44:12;4.80;;;2.80;;
19312;SDS011;9791;50.820;4.406;2022-07-12T07:46:38;7.18;;;3.33;;
19312;SDS011;9791;50.820;4.406;2022-07-12T07:49:04;5.05;;;3.10;;
19312;SDS011;9791;50.820;4.406;2022-07-12T07:51:30;5.93;;;2.80;;
19312;SDS011;9791;50.820;4.406;2022-07-12T07:53:56;4.97;;;2.90;;
19312;SDS011;9791;50.820;4.406;2022-07-12T07:56:22;5.55;;;3.33;;
19312;SDS011;9791;50.820;4.406;2022-07-12T07:58:48;4.30;;;2.78;;
19312;SDS011;9791;50.820;4.406;2022-07-12T08:01:14;5.63;;;3.20;;
19312;SDS011;9791;50.820;4.406;2022-07-12T08:03:41;6.82;;;2.75;;
19312;SDS011;9791;50.820;4.406;2022-07-12T08:06:07;5.03;;;3.30;;
19312;SDS011;9791;50.820;4.406;2022-07-12T08:08:33;7.03;;;3.25;;
19312;SDS011;9791;50.820;4.406;2022-07-12T08:10:59;5.45;;;3.38;;
19312;SDS011;9791;50.820;4.406;2022-07-12T08:13:25;5.03;;;3.22;;
19312;SDS011;9791;50.820;4.406;2022-07-12T08:15:51;5.80;;;3.25;;
19312;SDS011;9791;50.820;4.406;2022-07-12T08:18:17;6.47;;;3.22;;
19312;SDS011;9791;50.820;4.406;2022-07-12T08:20:43;6.65;;;3.33;;
19312;SDS011;9791;50.820;4.406;2022-07-12T08:23:10;6.60;;;3.30;;
19312;SDS011;9791;50.820;4.406;2022-07-12T08:25:36;4.45;;;2.58;;
19312;SDS011;9791;50.820;4.406;2022-07-12T08:28:02;5.68;;;3.10;;
19312;SDS011;9791;50.820;4.406;2022-07-12T08:30:28;4.25;;;2.70;;
19312;SDS011;9791;50.820;4.406;2022-07-12T08:32:54;5.20;;;3.08;;
19312;SDS011;9791;50.820;4.406;2022-07-12T08:35:20;4.93;;;3.13;;
19312;SDS011;9791;50.820;4.406;2022-07-12T08:37:46;4.97;;;3.25;;
19312;SDS011;9791;50.820;4.406;2022-07-12T08:40:12;5.07;;;2.90;;
19312;SDS011;9791;50.820;4.406;2022-07-12T08:42:41;5.40;;;2.65;;
19312;SDS011;9791;50.820;4.406;2022-07-12T08:45:08;4.55;;;3.10;;
19312;SDS011;9791;50.820;4.406;2022-07-12T08:47:34;4.30;;;2.90;;
19312;SDS011;9791;50.820;4.406;2022-07-12T08:52:39;4.78;;;2.80;;
19312;SDS011;9791;50.820;4.406;2022-07-12T08:55:21;4.20;;;2.67;;
19312;SDS011;9791;50.820;4.406;2022-07-12T08:57:47;5.68;;;2.55;;
19312;SDS011;9791;50.820;4.406;2022-07-12T09:00:14;6.72;;;2.40;;
19312;SDS011;9791;50.820;4.406;2022-07-12T09:02:44;4.68;;;2.63;;
19312;SDS011;9791;50.820;4.406;2022-07-12T09:05:10;4.20;;;2.70;;
19312;SDS011;9791;50.820;4.406;2022-07-12T09:07:37;4.30;;;2.50;;
19312;SDS011;9791;50.820;4.406;2022-07-12T09:10:07;5.32;;;3.00;;
19312;SDS011;9791;50.820;4.406;2022-07-12T09:12:34;3.70;;;2.30;;
19312;SDS011;9791;50.820;4.406;2022-07-12T09:17:38;4.43;;;2.03;;
19312;SDS011;9791;50.820;4.406;2022-07-12T09:20:05;3.80;;;2.30;;
19312;SDS011;9791;50.820;4.406;2022-07-12T09:22:31;3.78;;;2.53;;
19312;SDS011;9791;50.820;4.406;2022-07-12T09:24:57;4.07;;;2.60;;
19312;SDS011;9791;50.820;4.406;2022-07-12T09:27:27;5.00;;;2.63;;
19312;SDS011;9791;50.820;4.406;2022-07-12T09:29:53;4.72;;;2.45;;
19312;SDS011;9791;50.820;4.406;2022-07-12T09:32:19;6.43;;;2.55;;
19312;SDS011;9791;50.820;4.406;2022-07-12T09:35:04;5.78;;;2.38;;
19312;SDS011;9791;50.820;4.406;2022-07-12T09:37:49;4.18;;;2.05;;
19312;SDS011;9791;50.820;4.406;2022-07-12T09:40:15;5.35;;;2.33;;
19312;SDS011;9791;50.820;4.406;2022-07-12T09:42:41;4.20;;;2.13;;
19312;SDS011;9791;50.820;4.406;2022-07-12T09:45:08;5.20;;;2.40;;
19312;SDS011;9791;50.820;4.406;2022-07-12T09:47:37;4.30;;;2.50;;
19312;SDS011;9791;50.820;4.406;2022-07-12T09:50:03;3.65;;;2.25;;
19312;SDS011;9791;50.820;4.406;2022-07-12T09:52:32;3.90;;;2.00;;
19312;SDS011;9791;50.820;4.406;2022-07-12T09:54:58;3.78;;;2.17;;
19312;SDS011;9791;50.820;4.406;2022-07-12T09:57:27;3.55;;;2.00;;
19312;SDS011;9791;50.820;4.406;2022-07-12T09:59:55;4.45;;;2.28;;
19312;SDS011;9791;50.820;4.406;2022-07-12T10:02:22;4.65;;;2.28;;
19312;SDS011;9791;50.820;4.406;2022-07-12T10:04:49;5.05;;;2.42;;
19312;SDS011;9791;50.820;4.406;2022-07-12T10:07:15;5.28;;;2.65;;
19312;SDS011;9791;50.820;4.406;2022-07-12T10:09:42;4.88;;;2.75;;
19312;SDS011;9791;50.820;4.406;2022-07-12T10:12:09;3.30;;;1.95;;
19312;SDS011;9791;50.820;4.406;2022-07-12T10:14:36;3.47;;;1.90;;
19312;SDS011;9791;50.820;4.406;2022-07-12T10:17:03;3.55;;;2.03;;
19312;SDS011;9791;50.820;4.406;2022-07-12T10:19:34;4.13;;;2.17;;
19312;SDS011;9791;50.820;4.406;2022-07-12T10:22:01;4.32;;;2.20;;
19312;SDS011;9791;50.820;4.406;2022-07-12T10:26:57;3.30;;;1.90;;
19312;SDS011;9791;50.820;4.406;2022-07-12T10:29:23;4.70;;;2.25;;
19312;SDS011;9791;50.820;4.406;2022-07-12T10:31:50;4.15;;;1.88;;
19312;SDS011;9791;50.820;4.406;2022-07-12T10:34:21;4.45;;;2.17;;
19312;SDS011;9791;50.820;4.406;2022-07-12T10:39:22;5.30;;;2.30;;
19312;SDS011;9791;50.820;4.406;2022-07-12T10:44:36;4.43;;;2.40;;
19312;SDS011;9791;50.820;4.406;2022-07-12T10:47:03;4.80;;;2.10;;
19312;SDS011;9791;50.820;4.406;2022-07-12T10:49:30;3.70;;;1.85;;
19312;SDS011;9791;50.820;4.406;2022-07-12T10:54:41;4.50;;;1.95;;
19312;SDS011;9791;50.820;4.406;2022-07-12T10:57:08;3.60;;;1.98;;
19312;SDS011;9791;50.820;4.406;2022-07-12T10:59:35;4.38;;;2.40;;
19312;SDS011;9791;50.820;4.406;2022-07-12T11:02:02;3.38;;;1.95;;
19312;SDS011;9791;50.820;4.406;2022-07-12T11:04:28;3.53;;;1.95;;
19312;SDS011;9791;50.820;4.406;2022-07-12T11:06:55;5.15;;;1.95;;
19312;SDS011;9791;50.820;4.406;2022-07-12T11:09:22;6.07;;;2.42;;
19312;SDS011;9791;50.820;4.406;2022-07-12T11:11:49;4.18;;;1.90;;
19312;SDS011;9791;50.820;4.406;2022-07-12T11:14:23;3.88;;;2.10;;
19312;SDS011;9791;50.820;4.406;2022-07-12T11:16:50;3.58;;;2.03;;
19312;SDS011;9791;50.820;4.406;2022-07-12T11:19:20;3.70;;;2.17;;
19312;SDS011;9791;50.820;4.406;2022-07-12T11:21:48;4.00;;;2.33;;
19312;SDS011;9791;50.820;4.406;2022-07-12T11:24:23;4.47;;;2.10;;
19312;SDS011;9791;50.820;4.406;2022-07-12T11:26:50;3.75;;;2.25;;
19312;SDS011;9791;50.820;4.406;2022-07-12T11:29:16;4.30;;;2.25;;
19312;SDS011;9791;50.820;4.406;2022-07-12T11:31:42;3.47;;;2.00;;
19312;SDS011;9791;50.820;4.406;2022-07-12T11:34:22;3.72;;;1.95;;
19312;SDS011;9791;50.820;4.406;2022-07-12T11:36:52;3.85;;;1.90;;
19312;SDS011;9791;50.820;4.406;2022-07-12T11:39:38;3.50;;;1.83;;
19312;SDS011;9791;50.820;4.406;2022-07-12T11:42:04;4.65;;;1.98;;
19312;SDS011;9791;50.820;4.406;2022-07-12T11:44:43;4.70;;;1.77;;
19312;SDS011;9791;50.820;4.406;2022-07-12T11:47:10;4.00;;;2.00;;
19312;SDS011;9791;50.820;4.406;2022-07-12T11:49:36;5.07;;;2.38;;
19312;SDS011;9791;50.820;4.406;2022-07-12T11:52:06;4.07;;;2.00;;
19312;SDS011;9791;50.820;4.406;2022-07-12T11:54:32;4.15;;;2.20;;
19312;SDS011;9791;50.820;4.406;2022-07-12T11:57:07;3.97;;;2.20;;
19312;SDS011;9791;50.820;4.406;2022-07-12T11:59:34;5.60;;;2.25;;
19312;SDS011;9791;50.820;4.406;2022-07-12T12:02:06;4.15;;;2.20;;
19312;SDS011;9791;50.820;4.406;2022-07-12T12:04:43;4.68;;;2.50;;
19312;SDS011;9791;50.820;4.406;2022-07-12T12:07:10;5.25;;;2.67;;
19312;SDS011;9791;50.820;4.406;2022-07-12T12:12:26;5.07;;;2.75;;
19312;SDS011;9791;50.820;4.406;2022-07-12T12:14:52;5.10;;;2.90;;
19312;SDS011;9791;50.820;4.406;2022-07-12T12:17:18;5.40;;;2.47;;
19312;SDS011;9791;50.820;4.406;2022-07-12T12:19:44;5.45;;;2.67;;
19312;SDS011;9791;50.820;4.406;2022-07-12T12:24:59;5.50;;;2.45;;
19312;SDS011;9791;50.820;4.406;2022-07-12T12:27:26;6.07;;;2.47;;
19312;SDS011;9791;50.820;4.406;2022-07-12T12:29:52;5.10;;;2.72;;
19312;SDS011;9791;50.820;4.406;2022-07-12T12:32:18;5.45;;;2.38;;
19312;SDS011;9791;50.820;4.406;2022-07-12T12:37:29;6.22;;;2.90;;
19312;SDS011;9791;50.820;4.406;2022-07-12T12:39:55;5.57;;;2.72;;
19312;SDS011;9791;50.820;4.406;2022-07-12T12:42:24;5.40;;;2.58;;
19312;SDS011;9791;50.820;4.406;2022-07-12T12:44:51;5.57;;;2.55;;
19312;SDS011;9791;50.820;4.406;2022-07-12T12:47:17;5.25;;;2.92;;
19312;SDS011;9791;50.820;4.406;2022-07-12T12:50:01;4.13;;;2.15;;
19312;SDS011;9791;50.820;4.406;2022-07-12T12:52:30;8.95;;;2.90;;
19312;SDS011;9791;50.820;4.406;2022-07-12T12:54:57;6.30;;;2.92;;
19312;SDS011;9791;50.820;4.406;2022-07-12T12:57:23;5.75;;;2.67;;
19312;SDS011;9791;50.820;4.406;2022-07-12T12:59:51;4.60;;;2.90;;
19312;SDS011;9791;50.820;4.406;2022-07-12T13:02:16;5.18;;;2.90;;
19312;SDS011;9791;50.820;4.406;2022-07-12T13:04:44;4.40;;;2.58;;
19312;SDS011;9791;50.820;4.406;2022-07-12T13:07:10;7.30;;;2.83;;
19312;SDS011;9791;50.820;4.406;2022-07-12T13:09:35;5.07;;;2.60;;
19312;SDS011;9791;50.820;4.406;2022-07-12T13:12:01;5.70;;;3.00;;
19312;SDS011;9791;50.820;4.406;2022-07-12T13:14:29;5.55;;;2.88;;
19312;SDS011;9791;50.820;4.406;2022-07-12T13:16:55;7.53;;;2.92;;
19312;SDS011;9791;50.820;4.406;2022-07-12T13:19:21;6.88;;;3.63;;
19312;SDS011;9791;50.820;4.406;2022-07-12T13:21:47;4.97;;;2.75;;
19312;SDS011;9791;50.820;4.406;2022-07-12T13:24:13;5.32;;;3.30;;
19312;SDS011;9791;50.820;4.406;2022-07-12T13:26:39;4.43;;;2.67;;
19312;SDS011;9791;50.820;4.406;2022-07-12T13:29:05;5.55;;;2.63;;
19312;SDS011;9791;50.820;4.406;2022-07-12T13:31:31;7.97;;;2.58;;
19312;SDS011;9791;50.820;4.406;2022-07-12T13:33:57;5.43;;;2.33;;
19312;SDS011;9791;50.820;4.406;2022-07-12T13:36:23;7.43;;;2.60;;
19312;SDS011;9791;50.820;4.406;2022-07-12T13:38:49;4.78;;;2.33;;
19312;SDS011;9791;50.820;4.406;2022-07-12T13:41:15;4.95;;;2.05;;
19312;SDS011;9791;50.820;4.406;2022-07-12T13:43:41;4.40;;;2.33;;
19312;SDS011;9791;50.820;4.406;2022-07-12T13:46:07;4.75;;;2.40;;
19312;SDS011;9791;50.820;4.406;2022-07-12T13:48:34;5.30;;;2.40;;
19312;SDS011;9791;50.820;4.406;2022-07-12T13:51:00;7.15;;;2.20;;
19312;SDS011;9791;50.820;4.406;2022-07-12T13:53:25;5.25;;;2.58;;
19312;SDS011;9791;50.820;4.406;2022-07-12T13:55:51;3.83;;;1.83;;
19312;SDS011;9791;50.820;4.406;2022-07-12T13:58:17;5.20;;;2.28;;
19312;SDS011;9791;50.820;4.406;2022-07-12T14:00:43;4.72;;;2.38;;
19312;SDS011;9791;50.820;4.406;2022-07-12T14:03:09;3.88;;;2.20;;
19312;SDS011;9791;50.820;4.406;2022-07-12T14:05:35;5.47;;;2.30;;
19312;SDS011;9791;50.820;4.406;2022-07-12T14:08:02;5.82;;;2.40;;
19312;SDS011;9791;50.820;4.406;2022-07-12T14:10:28;5.78;;;2.42;;
19312;SDS011;9791;50.820;4.406;2022-07-12T14:12:54;4.32;;;2.42;;
19312;SDS011;9791;50.820;4.406;2022-07-12T14:15:20;3.97;;;2.03;;
19312;SDS011;9791;50.820;4.406;2022-07-12T14:18:04;6.45;;;2.22;;
19312;SDS011;9791;50.820;4.406;2022-07-12T14:20:31;4.78;;;1.90;;
19312;SDS011;9791;50.820;4.406;2022-07-12T14:22:57;4.80;;;2.40;;
19312;SDS011;9791;50.820;4.406;2022-07-12T14:25:23;4.38;;;2.35;;
19312;SDS011;9791;50.820;4.406;2022-07-12T14:27:49;5.75;;;2.33;;
19312;SDS011;9791;50.820;4.406;2022-07-12T14:30:15;5.18;;;2.20;;
19312;SDS011;9791;50.820;4.406;2022-07-12T14:32:41;4.90;;;2.47;;
19312;SDS011;9791;50.820;4.406;2022-07-12T14:35:07;4.68;;;2.47;;
19312;SDS011;9791;50.820;4.406;2022-07-12T14:37:34;4.75;;;2.63;;
19312;SDS011;9791;50.820;4.406;2022-07-12T14:40:02;7.22;;;2.40;;
19312;SDS011;9791;50.820;4.406;2022-07-12T14:42:28;6.32;;;2.50;;
19312;SDS011;9791;50.820;4.406;2022-07-12T14:44:54;4.93;;;2.40;;
19312;SDS011;9791;50.820;4.406;2022-07-12T14:47:20;4.57;;;2.55;;
19312;SDS011;9791;50.820;4.406;2022-07-12T14:49:47;4.20;;;2.28;;
19312;SDS011;9791;50.820;4.406;2022-07-12T14:52:13;5.15;;;2.65;;
19312;SDS011;9791;50.820;4.406;2022-07-12T14:54:39;4.45;;;2.40;;
19312;SDS011;9791;50.820;4.406;2022-07-12T14:57:05;5.18;;;2.28;;
19312;SDS011;9791;50.820;4.406;2022-07-12T14:59:31;4.68;;;2.65;;
19312;SDS011;9791;50.820;4.406;2022-07-12T15:01:57;4.43;;;2.17;;
19312;SDS011;9791;50.820;4.406;2022-07-12T15:04:24;4.93;;;2.40;;
19312;SDS011;9791;50.820;4.406;2022-07-12T15:06:50;4.15;;;1.90;;
19312;SDS011;9791;50.820;4.406;2022-07-12T15:09:16;4.45;;;2.05;;
19312;SDS011;9791;50.820;4.406;2022-07-12T15:11:42;5.25;;;2.15;;
19312;SDS011;9791;50.820;4.406;2022-07-12T15:14:08;3.47;;;1.90;;
19312;SDS011;9791;50.820;4.406;2022-07-12T15:16:34;4.75;;;2.30;;
19312;SDS011;9791;50.820;4.406;2022-07-12T15:19:00;3.83;;;2.08;;
19312;SDS011;9791;50.820;4.406;2022-07-12T15:21:26;3.85;;;1.90;;
19312;SDS011;9791;50.820;4.406;2022-07-12T15:23:52;5.72;;;2.20;;